• Join FlightAware (Why Join?)
  • Login
  • US Flag 
07:02PM EDT


 

Airport Tracker/Info


-or-


 

Live Flight TrackerFlight Track Log ✈ CTL311 ✈ 10-May-2013 ✈ KJXN - KMBS

Flight Track Log - Related Links

Times and Time Zones

All times are in EDT time to prevent confusion due to time zone crossing. See the CTL311 flight status page for this flight to view local times or setup timezone preferences in your user account.

Time Position Orientation Groundspeed Altitude Reporting Facility
EDT Latitude Longitude Course Direction KTS MPH feet Rate Location/Type
07:38PM 42.4878 -84.3787 11° North  Level FlightAware Approximate
07:39PM 42.5276 -84.3677 12° North  Level FlightAware Approximate
07:40PM 42.5675 -84.3566 12° North  Level FlightAware Approximate
07:41PM 42.6073 -84.3456 12° North  Level FlightAware Approximate
07:42PM 42.6472 -84.3345 12° North  Level FlightAware Approximate
07:43PM 42.6870 -84.3234 12° North  Level FlightAware Approximate
07:44PM 42.7268 -84.3124 12° North  Level FlightAware Approximate
07:45PM 42.7667 -84.3013 12° North  Level FlightAware Approximate
07:46PM 42.8065 -84.2902 12° North  Level FlightAware Approximate
07:47PM 42.8464 -84.2790 12° North  Level FlightAware Approximate
07:48PM 42.8862 -84.2679 12° North  Level FlightAware Approximate
07:49PM 42.9260 -84.2567 12° North  Level FlightAware Approximate
07:50PM 42.9658 -84.2451 13° North  Level FlightAware Approximate
07:51PM 43.0054 -84.2327 13° North  Level FlightAware Approximate
07:52PM 43.0451 -84.2204 13° North  Level FlightAware Approximate
07:53PM 43.0847 -84.2080 13° North  Level FlightAware Approximate
07:54PM 43.1244 -84.1956 13° North  Level FlightAware Approximate
07:55PM 43.1640 -84.1832 13° North  Level FlightAware Approximate
07:56PM 43.2036 -84.1708 13° North  Level FlightAware Approximate
07:57PM 43.2432 -84.1578 14° North  Level FlightAware Approximate
07:58PM 43.2828 -84.1451 13° North  Level FlightAware Approximate
07:59PM 43.3225 -84.1329 13° North  Level FlightAware Approximate
08:00PM 43.3621 -84.1207 13° North  Level FlightAware Approximate
08:01PM 43.4018 -84.1085 13° North  Level FlightAware Approximate
08:02PM 43.4415 -84.0962 13° North  Level FlightAware Approximate
08:03PM 43.4812 -84.0840 13° North  Level FlightAware Approximate
08:04PM 43.5167 -84.0667 20° North  Level FlightAware Approximate
08:05PM 43.5329 -84.0796 20° North  Level Estimated
08:06PM 43.5329 -84.0796 20° North  Level Estimated
08:07PM 43.5329 -84.0796 20° North  Level Estimated
08:08PM 43.5329 -84.0796 20° North  Level Estimated